Time;durP1;ratioP1;P1;durP2;ratioP2;P2;SDS_P1;SDS_P2;PMS_P1;PMS_P2;Temp;Humidity;BMP_temperature;BMP_pressure;BME280_temperature;BME280_humidity;BME280_pressure;Samples;Min_cycle;Max_cycle;Signal;HPM_P1;HPM_P2
2022/07/30 00:00:45;;;;;;;1.15;1.12;;;;;;;20.00;100.00;98963.38;4356655;32;20043;-73
2022/07/30 00:03:12;;;;;;;3.85;1.10;;;;;;;20.13;100.00;98987.06;4352845;32;20073;-73
2022/07/30 00:05:38;;;;;;;11.23;1.30;;;;;;;19.99;100.00;98948.87;4355409;32;20073;-73
2022/07/30 00:08:04;;;;;;;1.00;1.00;;;;;;;19.68;100.00;98900.50;4355044;32;20040;-73
2022/07/30 00:10:31;;;;;;;1.52;1.20;;;;;;;19.87;100.00;98941.28;4377085;32;20047;-73
2022/07/30 00:12:57;;;;;;;4.12;0.82;;;;;;;19.95;100.00;98965.09;4385217;32;20060;-74
2022/07/30 00:15:24;;;;;;;3.85;1.23;;;;;;;19.66;100.00;98901.94;4385913;32;20508;-73
2022/07/30 00:17:50;;;;;;;4.97;1.40;;;;;;;20.01;100.00;98967.69;4386791;32;20412;-73
2022/07/30 00:20:17;;;;;;;1.27;1.20;;;;;;;20.05;100.00;98969.47;4386310;32;20027;-73
2022/07/30 00:22:43;;;;;;;1.35;1.10;;;;;;;19.89;100.00;98955.41;4385769;32;20082;-74
2022/07/30 00:25:10;;;;;;;0.98;0.98;;;;;;;19.66;100.00;98923.78;4384718;32;20036;-73
2022/07/30 00:27:36;;;;;;;1.62;1.05;;;;;;;19.83;100.00;98961.34;4385040;32;20023;-73
2022/07/30 00:30:03;;;;;;;2.30;1.12;;;;;;;19.74;100.00;98969.47;4397142;32;20039;-73
2022/07/30 00:32:30;;;;;;;3.60;1.00;;;;;;;19.44;100.00;98914.50;4396364;32;20088;-73
2022/07/30 00:34:56;;;;;;;4.65;1.17;;;;;;;19.53;100.00;98923.56;4392526;32;20395;-74
2022/07/30 00:37:23;;;;;;;2.25;1.23;;;;;;;19.74;100.00;98942.94;4393363;32;20487;-73
2022/07/30 00:39:49;;;;;;;1.10;1.10;;;;;;;19.59;100.00;98954.25;4369563;32;20040;-73
2022/07/30 00:42:19;;;;;;;2.25;1.05;;;;;;;19.18;100.00;98915.12;4371030;32;20441;-73
2022/07/30 00:44:45;;;;;;;6.68;1.73;;;;;;;19.17;100.00;98913.50;4370423;32;20108;-74
2022/07/30 00:47:12;;;;;;;1.95;1.12;;;;;;;19.39;100.00;98928.28;4368497;32;20125;-73
2022/07/30 00:49:38;;;;;;;1.75;1.10;;;;;;;19.34;100.00;98920.22;4370986;32;20420;-73
2022/07/30 00:52:04;;;;;;;0.90;0.90;;;;;;;19.19;100.00;98897.63;4370921;32;20028;-71
2022/07/30 00:54:37;;;;;;;1.00;0.90;;;;;;;19.20;100.00;98880.13;4369194;32;20044;-75
2022/07/30 00:57:03;;;;;;;1.37;1.23;;;;;;;18.98;100.00;98861.03;4369604;32;20190;-73
2022/07/30 00:59:31;;;;;;;1.65;1.50;;;;;;;19.12;100.00;98883.59;4339825;33;20036;-73
2022/07/30 01:02:00;;;;;;;1.17;1.12;;;;;;;19.01;100.00;98887.69;4304219;33;20491;-74
2022/07/30 01:04:26;;;;;;;1.62;1.37;;;;;;;18.89;100.00;98874.59;4301886;33;20038;-74
2022/07/30 01:06:52;;;;;;;1.15;1.15;;;;;;;18.96;100.00;98906.91;4302571;33;20049;-75
2022/07/30 01:09:19;;;;;;;1.85;1.12;;;;;;;18.48;100.00;98826.41;4297248;33;20081;-73
2022/07/30 01:11:45;;;;;;;1.08;0.98;;;;;;;19.00;100.00;98902.44;4297076;33;20123;-73
2022/07/30 01:14:12;;;;;;;1.62;1.45;;;;;;;18.76;100.00;98865.31;4296955;33;20118;-72
2022/07/30 01:16:41;;;;;;;5.40;1.20;;;;;;;19.04;100.00;98895.25;4304009;33;20073;-76
2022/07/30 01:22:17;;;;;;;6.50;1.23;;;;;;;18.94;100.00;98870.94;4340134;33;20363;-73
2022/07/30 01:24:55;;;;;;;1.83;1.67;;;;;;;19.03;100.00;98869.91;4340848;33;20887;-72
2022/07/30 01:27:23;;;;;;;6.35;1.20;;;;;;;18.97;100.00;98875.78;4339819;33;20041;-74
2022/07/30 01:29:52;;;;;;;2.92;0.98;;;;;;;18.83;100.00;98849.34;4332091;33;20540;-73
2022/07/30 01:32:22;;;;;;;1.48;1.20;;;;;;;18.93;100.00;98891.16;4337510;32;20084;-75
2022/07/30 01:34:53;;;;;;;4.57;0.97;;;;;;;18.65;100.00;98823.03;4362098;32;20069;-72
2022/07/30 01:37:20;;;;;;;2.28;0.98;;;;;;;19.02;100.00;98884.66;4355554;32;20057;-73
2022/07/30 01:39:48;;;;;;;1.00;0.98;;;;;;;18.69;100.00;98848.56;4355458;32;20049;-73
2022/07/30 01:42:16;;;;;;;1.48;1.35;;;;;;;18.79;100.00;98831.97;4354062;32;20044;-75
2022/07/30 01:44:45;;;;;;;1.90;0.98;;;;;;;18.84;100.00;98845.53;4353950;33;20070;-73
2022/07/30 01:47:16;;;;;;;5.60;1.40;;;;;;;19.02;100.00;98872.94;4355684;32;20357;-73
2022/07/30 01:49:47;;;;;;;4.47;1.17;;;;;;;18.94;100.00;98874.47;4355614;32;20201;-73
2022/07/30 01:52:15;;;;;;;2.40;1.20;;;;;;;18.70;100.00;98833.84;4353841;32;20111;-73
2022/07/30 01:54:44;;;;;;;2.25;1.10;;;;;;;18.83;100.00;98868.44;4355121;32;20077;-73
2022/07/30 01:57:13;;;;;;;1.48;1.37;;;;;;;18.46;100.00;98837.63;4310462;33;20062;-73
2022/07/30 01:59:44;;;;;;;1.12;0.90;;;;;;;18.38;100.00;98792.03;4311664;33;20472;-73
2022/07/30 02:02:11;;;;;;;4.22;1.12;;;;;;;18.91;100.00;98860.63;4338861;33;20024;-75
2022/07/30 02:04:38;;;;;;;9.63;1.10;;;;;;;18.76;100.00;98829.06;4340960;33;20466;-73
2022/07/30 02:07:15;;;;;;;2.30;0.98;;;;;;;18.79;100.00;98831.97;4340172;33;20430;-73
2022/07/30 02:09:50;;;;;;;1.55;0.90;;;;;;;18.99;100.00;98854.47;4378805;32;20039;-72
2022/07/30 02:12:30;;;;;;;5.50;1.20;;;;;;;18.84;100.00;98844.69;4376363;32;20419;-72
2022/07/30 02:15:28;;;;;;;5.90;1.30;;;;;;;18.82;100.00;98864.06;4376374;32;20081;-73
2022/07/30 02:18:10;;;;;;;1.60;1.12;;;;;;;18.94;100.00;98860.03;4376188;32;20023;-73
2022/07/30 02:20:41;;;;;;;2.62;1.23;;;;;;;18.78;100.00;98829.53;4376255;32;20051;-73
2022/07/30 02:23:11;;;;;;;2.40;0.90;;;;;;;18.72;100.00;98814.44;4373561;32;20157;-73
2022/07/30 02:25:43;;;;;;;1.00;1.00;;;;;;;18.83;100.00;98857.50;4377010;32;20044;-73
2022/07/30 02:28:13;;;;;;;3.12;1.48;;;;;;;18.78;100.00;98852.19;4393176;32;20052;-73
2022/07/30 02:30:50;;;;;;;6.43;1.05;;;;;;;18.84;100.00;98850.97;4416930;32;20038;-76
2022/07/30 02:33:21;;;;;;;1.10;1.10;;;;;;;18.68;100.00;98830.59;4398626;32;20444;-74
2022/07/30 02:35:53;;;;;;;0.90;0.90;;;;;;;18.23;100.00;98765.91;4399734;32;20380;-74
2022/07/30 02:38:20;;;;;;;6.12;0.98;;;;;;;18.78;100.00;98845.91;4399052;32;20463;-73
2022/07/30 02:40:48;;;;;;;2.22;1.20;;;;;;;18.51;100.00;98818.44;4387671;32;20493;-76
2022/07/30 02:43:16;;;;;;;1.33;1.00;;;;;;;18.61;100.00;98830.22;4392302;32;20104;-74
2022/07/30 02:45:46;;;;;;;3.85;1.10;;;;;;;18.36;100.00;98801.59;4392886;32;20170;-73
2022/07/30 02:48:14;;;;;;;0.90;0.90;;;;;;;18.30;100.00;98792.72;4363036;32;20098;-73
2022/07/30 02:50:41;;;;;;;3.30;1.30;;;;;;;18.56;100.00;98843.97;4360905;32;20377;-75
2022/07/30 02:53:10;;;;;;;5.57;0.98;;;;;;;18.55;100.00;98836.91;4361210;32;20051;-74
2022/07/30 02:55:41;;;;;;;4.68;1.20;;;;;;;18.61;100.00;98846.59;4362157;32;20043;-73
2022/07/30 02:58:09;;;;;;;1.92;1.27;;;;;;;18.73;100.00;98844.13;4360991;32;20540;-73
2022/07/30 03:00:37;;;;;;;0.95;0.85;;;;;;;18.67;100.00;98839.91;4361790;32;20035;-74
2022/07/30 03:03:06;;;;;;;2.10;1.10;;;;;;;18.54;100.00;98840.72;4367001;32;20059;-73
2022/07/30 03:05:38;;;;;;;1.70;1.15;;;;;;;18.19;100.00;98772.28;4375667;32;20061;-74
2022/07/30 03:08:07;;;;;;;1.12;1.08;;;;;;;18.22;100.00;98805.19;4374614;32;20048;-74
2022/07/30 03:10:35;;;;;;;1.15;1.05;;;;;;;18.41;100.00;98837.75;4372132;32;20067;-74
2022/07/30 03:13:05;;;;;;;3.37;1.58;;;;;;;18.36;100.00;98839.78;4372403;32;20086;-74
2022/07/30 03:15:36;;;;;;;1.10;1.10;;;;;;;18.47;100.00;98841.94;4372211;32;20066;-73
2022/07/30 03:18:05;;;;;;;1.52;1.20;;;;;;;18.30;100.00;98815.34;4385776;32;20395;-73
2022/07/30 03:20:34;;;;;;;1.17;1.02;;;;;;;18.29;100.00;98796.59;4408037;32;20030;-74
2022/07/30 03:23:02;;;;;;;0.95;0.95;;;;;;;18.58;100.00;98804.37;4408249;32;20057;-73
2022/07/30 03:25:30;;;;;;;1.27;1.17;;;;;;;18.71;100.00;98835.44;4408824;32;20103;-74
2022/07/30 03:28:00;;;;;;;2.65;1.10;;;;;;;19.00;100.00;98853.31;4374633;32;20492;-74
2022/07/30 03:30:27;;;;;;;3.83;1.73;;;;;;;18.91;100.00;98852.44;4376561;32;20061;-71
2022/07/30 03:32:55;;;;;;;2.17;1.25;;;;;;;18.95;100.00;98851.53;4364568;32;20850;-73
2022/07/30 03:35:25;;;;;;;2.92;1.80;;;;;;;18.73;100.00;98814.13;4365205;32;20053;-74
2022/07/30 03:37:54;;;;;;;2.67;0.98;;;;;;;18.84;100.00;98844.69;4363527;32;20079;-73
2022/07/30 03:40:22;;;;;;;1.23;0.95;;;;;;;18.97;100.00;98843.03;4362989;32;20139;-75
2022/07/30 03:42:49;;;;;;;1.30;0.93;;;;;;;18.98;100.00;98822.84;4363952;32;20099;-73
2022/07/30 03:45:17;;;;;;;2.45;0.77;;;;;;;18.85;100.00;98811.66;4364617;32;20028;-74
2022/07/30 03:47:46;;;;;;;0.88;0.88;;;;;;;19.13;100.00;98819.72;4363673;32;20377;-73
2022/07/30 03:50:14;;;;;;;4.85;1.50;;;;;;;18.99;100.00;98797.16;4363097;32;20331;-77
2022/07/30 03:52:41;;;;;;;6.28;1.05;;;;;;;19.33;100.00;98833.97;4364471;32;20510;-73
2022/07/30 03:55:11;;;;;;;6.05;1.30;;;;;;;19.28;100.00;98842.28;4363510;32;20047;-71
2022/07/30 03:57:53;;;;;;;7.78;1.10;;;;;;;18.96;100.00;98806.78;4363694;32;20518;-76
2022/07/30 04:00:21;;;;;;;2.85;1.58;;;;;;;19.10;100.00;98847.63;4392731;32;20541;-71
2022/07/30 04:02:48;;;;;;;1.02;1.02;;;;;;;18.85;100.00;98802.69;4394619;32;20044;-72
2022/07/30 04:05:16;;;;;;;1.85;1.05;;;;;;;19.01;100.00;98812.09;4417796;32;20038;-72
2022/07/30 04:07:43;;;;;;;5.87;1.23;;;;;;;19.00;100.00;98815.97;4419102;32;20111;-73
2022/07/30 04:10:10;;;;;;;7.75;1.10;;;;;;;18.93;100.00;98795.69;4416896;32;20051;-73
2022/07/30 04:12:38;;;;;;;0.98;0.98;;;;;;;18.74;100.00;98780.28;4418979;32;20050;-73
2022/07/30 04:15:05;;;;;;;6.65;1.20;;;;;;;18.98;100.00;98825.56;4418950;32;20399;-73
2022/07/30 04:17:40;;;;;;;2.25;1.10;;;;;;;18.97;100.00;98823.94;4401022;32;20080;-74
2022/07/30 04:20:12;;;;;;;3.75;1.15;;;;;;;18.95;100.00;98829.69;4398170;32;20052;-73
2022/07/30 04:22:45;;;;;;;;;;;;;;;18.97;100.00;98799.38;4401831;32;20035;-73
2022/07/30 04:25:13;;;;;;;3.65;1.83;;;;;;;19.15;100.00;98828.41;4386103;32;19945;-74
2022/07/30 04:27:39;;;;;;;1.85;1.08;;;;;;;19.20;100.00;98822.00;4383565;32;20061;-73
2022/07/30 04:30:06;;;;;;;2.00;1.37;;;;;;;18.96;100.00;98800.53;4384751;32;20031;-74
2022/07/30 04:32:36;;;;;;;1.92;0.93;;;;;;;18.81;100.00;98791.56;4385373;32;20073;-73
2022/07/30 04:35:08;;;;;;;1.50;1.30;;;;;;;19.14;100.00;98825.97;4386087;32;20068;-74
2022/07/30 04:37:37;;;;;;;2.97;1.17;;;;;;;18.94;100.00;98794.53;4384057;32;20047;-75
2022/07/30 04:40:05;;;;;;;4.20;1.40;;;;;;;19.19;100.00;98818.50;4384615;32;20035;-73
2022/07/30 04:42:31;;;;;;;1.60;1.50;;;;;;;19.05;100.00;98828.63;4383492;32;20057;-73
2022/07/30 04:44:59;;;;;;;4.60;1.55;;;;;;;18.79;100.00;98796.50;4385990;32;20064;-73
2022/07/30 04:47:25;;;;;;;3.60;1.27;;;;;;;19.04;100.00;98810.69;4385975;32;20132;-73
2022/07/30 04:49:55;;;;;;;1.62;1.52;;;;;;;18.94;100.00;98783.63;4390789;32;20096;-74
2022/07/30 04:52:22;;;;;;;1.42;1.33;;;;;;;19.03;100.00;98792.69;4393857;32;20113;-73
2022/07/30 04:54:54;;;;;;;2.12;1.33;;;;;;;19.20;100.00;98822.81;4392581;32;20052;-73
2022/07/30 04:57:23;;;;;;;2.30;1.23;;;;;;;19.14;100.00;98826.78;4416602;32;20406;-73
2022/07/30 04:59:50;;;;;;;1.12;1.12;;;;;;;19.22;100.00;98828.75;4417620;32;20470;-74
2022/07/30 05:02:19;;;;;;;6.55;1.37;;;;;;;18.78;100.00;98792.19;4393880;32;20461;-73
2022/07/30 05:04:47;;;;;;;1.77;1.52;;;;;;;18.81;100.00;98794.28;4408718;32;20352;-73
2022/07/30 05:07:20;;;;;;;1.92;1.23;;;;;;;18.73;100.00;98800.50;4408742;32;20076;-73
2022/07/30 05:09:48;;;;;;;1.40;1.30;;;;;;;18.67;100.00;98780.72;4406133;32;20047;-72
2022/07/30 05:12:14;;;;;;;1.85;1.75;;;;;;;18.94;100.00;98800.00;4408778;32;20093;-72
2022/07/30 05:14:41;;;;;;;7.62;1.75;;;;;;;19.19;100.00;98814.94;4407261;32;20052;-73
2022/07/30 05:17:14;;;;;;;1.30;1.30;;;;;;;19.08;100.00;98784.38;4398938;32;20061;-76
2022/07/30 05:19:41;;;;;;;5.35;1.23;;;;;;;19.10;100.00;98782.16;4397768;32;20053;-73
2022/07/30 05:22:07;;;;;;;1.92;1.83;;;;;;;19.23;100.00;98822.19;4400593;32;20034;-74
2022/07/30 05:24:34;;;;;;;3.37;1.40;;;;;;;19.05;100.00;98810.38;4399059;32;20473;-74
2022/07/30 05:27:01;;;;;;;1.87;1.20;;;;;;;18.87;100.00;98823.09;4397909;32;20389;-76
2022/07/30 05:29:27;;;;;;;3.12;1.50;;;;;;;18.99;100.00;98819.00;4384259;32;20485;-73
2022/07/30 05:31:56;;;;;;;4.45;1.77;;;;;;;19.04;100.00;98810.69;4386888;32;20027;-73
2022/07/30 05:34:24;;;;;;;1.83;1.45;;;;;;;18.86;100.00;98821.47;4385852;32;20654;-73
2022/07/30 05:36:51;;;;;;;1.87;1.50;;;;;;;18.48;100.00;98799.16;4369759;32;20066;-74
2022/07/30 05:39:18;;;;;;;7.00;1.40;;;;;;;18.45;100.00;98773.31;4368910;32;20346;-73
2022/07/30 05:41:45;;;;;;;1.42;1.33;;;;;;;18.49;100.00;98796.13;4369862;32;20028;-73
2022/07/30 05:44:12;;;;;;;2.00;1.62;;;;;;;18.73;100.00;98816.84;4355283;32;20040;-73
2022/07/30 05:46:39;;;;;;;2.95;1.77;;;;;;;18.93;100.00;98820.22;4353483;32;20186;-73
2022/07/30 05:49:05;;;;;;;6.35;1.60;;;;;;;18.54;100.00;98743.41;4351548;32;20032;-74
2022/07/30 05:51:32;;;;;;;2.78;1.55;;;;;;;18.78;100.00;98808.56;4353579;33;20965;-73
2022/07/30 05:53:58;;;;;;;5.07;1.70;;;;;;;18.67;100.00;98769.00;4351519;32;20524;-73
2022/07/30 05:56:26;;;;;;;9.23;2.15;;;;;;;18.70;100.00;98774.63;4352050;32;20020;-73
2022/07/30 05:58:53;;;;;;;18.00;1.80;;;;;;;18.82;100.00;98760.44;4354949;32;20084;-73
2022/07/30 06:01:22;;;;;;;2.10;1.80;;;;;;;19.10;100.00;98809.44;4351640;32;20066;-73
2022/07/30 06:03:49;;;;;;;11.80;2.12;;;;;;;19.06;100.00;98760.13;4354507;32;20361;-73
2022/07/30 06:06:18;;;;;;;4.30;2.00;;;;;;;19.35;100.00;98793.50;4354437;32;20045;-73
2022/07/30 06:08:45;;;;;;;2.55;1.50;;;;;;;19.26;100.00;98814.50;4354872;32;20058;-73
2022/07/30 06:11:11;;;;;;;3.47;1.70;;;;;;;19.19;100.00;98785.75;4354648;32;20031;-74
2022/07/30 06:13:39;;;;;;;3.17;1.85;;;;;;;19.35;100.00;98812.63;4355602;32;20057;-73
2022/07/30 06:16:05;;;;;;;3.20;2.15;;;;;;;19.33;100.00;98812.13;4381675;32;20053;-74
2022/07/30 06:18:33;;;;;;;1.77;1.52;;;;;;;19.32;100.00;98815.97;4369643;32;20365;-73
2022/07/30 06:21:01;;;;;;;1.35;1.30;;;;;;;19.49;100.00;98813.34;4369614;32;20035;-73
2022/07/30 06:23:28;;;;;;;3.22;1.83;;;;;;;19.39;100.00;98764.47;4367476;32;20030;-72
2022/07/30 06:25:58;;;;;;;7.65;1.77;;;;;;;19.43;100.00;98757.25;4369360;32;20444;-72
2022/07/30 06:28:25;;;;;;;2.87;1.87;;;;;;;19.52;100.00;98744.44;4369550;32;20057;-72
2022/07/30 06:30:51;;;;;;;2.03;1.73;;;;;;;19.67;100.00;98802.47;4369608;32;20439;-72
2022/07/30 06:33:18;;;;;;;1.83;1.70;;;;;;;19.80;100.00;98766.09;4373455;32;20047;-74
2022/07/30 06:35:44;;;;;;;3.80;2.28;;;;;;;20.10;100.00;98779.97;4373812;32;20058;-73
2022/07/30 06:38:12;;;;;;;4.03;1.80;;;;;;;20.24;100.00;98769.69;4375659;32;20050;-73
2022/07/30 06:40:40;;;;;;;3.15;1.85;;;;;;;19.92;100.00;98774.47;4378221;32;20045;-74
2022/07/30 06:43:12;;;;;;;4.22;1.92;;;;;;;19.79;100.00;98775.41;4374268;32;20445;-75
2022/07/30 06:45:42;;;;;;;6.85;1.70;;;;;;;20.11;100.00;98765.19;4376699;32;20381;-73
2022/07/30 06:48:10;;;;;;;7.22;2.00;;;;;;;20.30;100.00;98773.87;4375149;32;20053;-73
2022/07/30 06:50:36;;;;;;;5.62;2.47;;;;;;;20.56;100.00;98813.31;4389534;32;20068;-72
2022/07/30 06:53:03;;;;;;;2.78;1.90;;;;;;;20.49;100.00;98767.31;4390064;32;20365;-75
2022/07/30 06:55:31;;;;;;;5.25;2.17;;;;;;;20.63;100.00;98780.81;4378354;32;20116;-72
2022/07/30 06:58:00;;;;;;;6.25;2.20;;;;;;;20.91;100.00;98796.91;4380824;32;20031;-73
2022/07/30 07:00:29;;;;;;;2.30;2.08;;;;;;;20.94;100.00;98809.97;4378506;32;20028;-72
2022/07/30 07:02:57;;;;;;;4.72;1.75;;;;;;;20.59;100.00;98764.25;4377919;32;20186;-73
2022/07/30 07:05:27;;;;;;;2.45;1.62;;;;;;;20.08;100.00;98694.78;4379807;32;20400;-73
2022/07/30 07:07:54;;;;;;;4.60;1.90;;;;;;;20.66;100.00;98785.66;4408290;32;20493;-72
2022/07/30 07:10:20;;;;;;;2.30;2.10;;;;;;;20.64;100.00;98776.97;4409902;32;20035;-73
2022/07/30 07:12:47;;;;;;;1.62;1.27;;;;;;;20.42;100.00;98770.53;4410023;32;20072;-75
2022/07/30 07:15:14;;;;;;;3.83;1.62;;;;;;;20.37;100.00;98789.00;4379041;32;20151;-73
2022/07/30 07:17:42;;;;;;;2.67;1.65;;;;;;;20.40;100.00;98750.09;4378492;32;20101;-74
2022/07/30 07:20:20;;;;;;;9.70;1.98;;;;;;;20.55;100.00;98779.69;4378213;32;20039;-72
2022/07/30 07:22:47;;;;;;;2.00;1.60;;;;;;;20.21;100.00;98743.00;4376903;32;20036;-74
2022/07/30 07:25:13;;;;;;;9.82;1.90;;;;;;;20.40;100.00;98766.50;4380526;32;20071;-73
2022/07/30 07:27:40;;;;;;;6.53;1.95;;;;;;;19.85;100.00;98691.38;4384879;32;20043;-74
2022/07/30 07:30:07;;;;;;;3.83;2.20;;;;;;;20.39;100.00;98775.81;4387053;32;20031;-72
2022/07/30 07:32:35;;;;;;;3.37;1.58;;;;;;;20.33;100.00;98777.94;4390595;32;20067;-75
2022/07/30 07:35:02;;;;;;;1.95;1.58;;;;;;;20.66;100.00;98775.53;4400814;32;20046;-72
2022/07/30 07:37:29;;;;;;;1.42;1.42;;;;;;;20.79;100.00;98770.19;4401893;32;20077;-72
2022/07/30 07:39:55;;;;;;;6.53;1.75;;;;;;;20.53;100.00;98731.91;4402136;32;20031;-72
2022/07/30 07:42:22;;;;;;;2.85;1.90;;;;;;;20.86;100.00;98763.12;4401548;32;20060;-72
2022/07/30 07:44:49;;;;;;;4.22;1.65;;;;;;;20.93;100.00;98743.47;4370247;32;20177;-73
2022/07/30 07:47:16;;;;;;;11.18;2.05;;;;;;;21.19;100.00;98753.56;4348600;32;20442;-74
2022/07/30 07:49:44;;;;;;;4.22;2.00;;;;;;;21.19;100.00;98764.50;4348395;32;20087;-74
2022/07/30 07:52:11;;;;;;;7.28;2.20;;;;;;;21.41;100.00;98767.00;4348277;32;20040;-74
2022/07/30 07:54:37;;;;;;;1.73;1.55;;;;;;;21.60;100.00;98752.13;4329636;33;20054;-73
2022/07/30 07:57:06;;;;;;;4.20;1.77;;;;;;;21.52;100.00;98717.34;4335055;33;20070;-73
2022/07/30 07:59:34;;;;;;;4.93;1.60;;;;;;;21.54;100.00;98743.28;4331938;33;20108;-74
2022/07/30 08:02:00;;;;;;;4.57;1.92;;;;;;;21.22;100.00;98741.94;4335038;33;20114;-73
2022/07/30 08:04:29;;;;;;;3.42;2.12;;;;;;;21.26;100.00;98699.09;4331631;33;20035;-76
2022/07/30 08:07:01;;;;;;;3.17;1.90;;;;;;;21.76;100.00;98755.91;4333632;33;20096;-73
2022/07/30 08:09:30;;;;;;;5.82;2.37;;;;;;;21.68;100.00;98723.88;4333035;33;20096;-73
2022/07/30 08:11:57;;;;;;;2.15;2.03;;;;;;;21.90;100.00;98760.34;4312046;33;20024;-74
2022/07/30 08:14:25;;;;;;;7.12;1.80;;;;;;;21.75;100.00;98756.25;4308451;33;20499;-76
2022/07/30 08:16:54;;;;;;;3.97;1.65;;;;;;;21.37;100.00;98738.66;4325384;33;20074;-73
2022/07/30 08:19:21;;;;;;;3.20;2.53;;;;;;;21.41;100.00;98727.84;4353280;32;20352;-73
2022/07/30 08:21:48;;;;;;;2.83;1.85;;;;;;;21.81;100.00;98757.66;4356394;32;20061;-74
2022/07/30 08:24:16;;;;;;;2.60;2.40;;;;;;;22.05;100.00;98762.50;4356157;32;20040;-76
2022/07/30 08:26:42;;;;;;;7.90;1.67;;;;;;;21.72;100.00;98759.66;4351134;32;20498;-74
2022/07/30 08:29:09;;;;;;;4.53;2.33;;;;;;;21.73;100.00;98740.12;4356484;32;20959;-73
2022/07/30 08:31:36;;;;;;;4.00;2.12;;;;;;;21.97;100.00;98766.13;4355501;32;20048;-73
2022/07/30 08:34:02;;;;;;;2.65;2.03;;;;;;;21.43;100.00;98763.94;4354158;32;20111;-73
2022/07/30 08:36:29;;;;;;;7.78;2.03;;;;;;;21.52;100.00;98750.22;4356116;32;20053;-73
2022/07/30 08:38:55;;;;;;;3.10;2.08;;;;;;;20.76;100.00;98730.63;4359759;32;20351;-73
2022/07/30 08:41:24;;;;;;;3.62;2.25;;;;;;;21.16;100.00;98754.22;4363107;32;20051;-73
2022/07/30 08:43:50;;;;;;;11.73;2.35;;;;;;;21.22;100.00;98744.66;4386909;32;20023;-73
2022/07/30 08:46:24;;;;;;;5.55;2.30;;;;;;;21.20;100.00;98766.91;4394494;32;20035;-73
2022/07/30 08:48:51;;;;;;;9.02;2.37;;;;;;;21.07;100.00;98756.97;4390461;32;20433;-73
2022/07/30 08:51:18;;;;;;;9.32;2.85;;;;;;;20.47;100.00;98723.06;4394231;32;20035;-74
2022/07/30 08:53:47;;;;;;;6.55;2.67;;;;;;;20.20;100.00;98727.75;4391816;32;20055;-74
2022/07/30 08:56:15;;;;;;;4.35;2.70;;;;;;;19.73;100.00;98732.94;4394372;32;20092;-75
2022/07/30 08:58:44;;;;;;;9.30;3.28;;;;;;;19.84;100.00;98755.34;4425491;32;20432;-74
2022/07/30 09:01:11;;;;;;;3.50;2.92;;;;;;;19.94;100.00;98776.88;4433350;32;20406;-74
2022/07/30 09:03:38;;;;;;;3.17;2.90;;;;;;;19.72;100.00;98743.06;4433418;32;20094;-74
2022/07/30 09:06:04;;;;;;;6.50;3.00;;;;;;;19.94;100.00;98774.97;4431588;32;20520;-73
2022/07/30 09:08:31;;;;;;;5.10;3.25;;;;;;;19.94;100.00;98766.78;4430190;32;20049;-75
2022/07/30 09:10:58;;;;;;;8.45;2.67;;;;;;;19.45;100.00;98727.72;4415444;32;20043;-73
2022/07/30 09:13:33;;;;;;;3.55;2.87;;;;;;;19.49;100.00;98782.50;4408249;32;20048;-73
2022/07/30 09:16:02;;;;;;;7.30;4.18;;;;;;;18.67;100.00;98698.91;4405682;32;20400;-73
2022/07/30 09:18:35;;;;;;;7.45;4.07;;;;;;;19.03;100.00;98754.50;4405750;32;20048;-74
2022/07/30 09:21:23;;;;;;;8.63;4.15;;;;;;;19.35;100.00;98796.25;4408190;32;20053;-73
2022/07/30 09:24:02;;;;;;;7.07;4.00;;;;;;;19.24;100.00;98793.78;4387426;32;20069;-76
2022/07/30 09:26:51;;;;;;;6.00;3.80;;;;;;;19.16;100.00;98775.44;4389917;32;20072;-72
2022/07/30 09:29:29;;;;;;;6.90;3.60;;;;;;;19.30;100.00;98807.28;4389609;32;20038;-73
2022/07/30 09:32:10;;;;;;;4.80;4.07;;;;;;;19.21;100.00;98799.88;4389965;32;20043;-73
2022/07/30 09:34:40;;;;;;;5.57;3.92;;;;;;;19.20;100.00;98781.06;4376303;32;20034;-74
2022/07/30 09:37:21;;;;;;;6.82;3.35;;;;;;;19.32;100.00;98794.97;4362558;32;20063;-73
2022/07/30 09:39:49;;;;;;;9.63;4.53;;;;;;;19.34;100.00;98781.00;4361255;32;20470;-75
2022/07/30 09:42:21;;;;;;;6.50;4.68;;;;;;;19.29;100.00;98740.16;4353843;32;20041;-74
2022/07/30 09:44:51;;;;;;;10.98;4.97;;;;;;;19.63;100.00;98782.41;4342736;32;20065;-74
2022/07/30 09:47:56;;;;;;;4.72;3.87;;;;;;;19.35;100.00;98744.37;4319258;33;20044;-74
2022/07/30 09:50:23;;;;;;;5.43;3.70;;;;;;;19.56;100.00;98783.66;4326673;33;20028;-74
2022/07/30 09:52:51;;;;;;;4.25;3.50;;;;;;;19.37;100.00;98769.41;4333570;33;21045;-74
2022/07/30 09:55:32;;;;;;;8.35;3.55;;;;;;;19.19;100.00;98730.34;4324359;33;20032;-74
2022/07/30 09:58:01;;;;;;;4.25;3.30;;;;;;;18.91;100.00;98686.06;4328026;33;20460;-75
2022/07/30 10:00:30;;;;;;;3.65;3.35;;;;;;;18.82;100.00;98664.97;4316303;33;20062;-74
2022/07/30 10:02:59;;;;;;;7.03;4.80;;;;;;;19.67;100.00;98766.97;4316444;33;20036;-74
2022/07/30 10:05:33;;;;;;;6.97;3.58;;;;;;;19.39;100.00;98696.22;4302504;33;20038;-74
2022/07/30 10:08:01;;;;;;;4.25;3.50;;;;;;;19.87;100.00;98771.88;4301347;33;20033;-74
2022/07/30 10:10:30;;;;;;;9.13;4.57;;;;;;;20.01;100.00;98762.75;4300220;33;20032;-75
2022/07/30 10:12:59;;;;;;;6.70;3.30;;;;;;;19.91;100.00;98761.13;4301188;33;20045;-74
2022/07/30 10:15:31;;;;;;;6.87;3.87;;;;;;;19.76;100.00;98770.56;4325893;33;20062;-74
2022/07/30 10:17:59;;;;;;;6.30;3.85;;;;;;;19.78;100.00;98762.88;4335237;32;20394;-74
2022/07/30 10:20:27;;;;;;;4.93;3.70;;;;;;;19.67;100.00;98756.06;4316101;33;20349;-75
2022/07/30 10:22:56;;;;;;;5.93;3.97;;;;;;;19.54;100.00;98731.25;4316285;33;20075;-74
2022/07/30 10:25:30;;;;;;;5.62;3.95;;;;;;;19.24;100.00;98679.16;4314834;33;20393;-74
2022/07/30 10:28:02;;;;;;;6.78;3.47;;;;;;;19.76;100.00;98762.38;4315803;33;20066;-74
2022/07/30 10:30:31;;;;;;;6.28;4.30;;;;;;;19.85;100.00;98763.22;4317869;33;20025;-74
2022/07/30 10:32:58;;;;;;;6.07;3.35;;;;;;;19.59;100.00;98722.94;4351628;32;20085;-76
2022/07/30 10:35:25;;;;;;;5.68;4.32;;;;;;;19.63;100.00;98760.56;4354335;32;20042;-74
2022/07/30 10:37:54;;;;;;;4.85;4.20;;;;;;;19.31;100.00;98718.84;4384110;32;20024;-74
2022/07/30 10:40:36;;;;;;;8.48;4.53;;;;;;;19.43;100.00;98713.56;4353428;32;20043;-74
2022/07/30 10:43:26;;;;;;;5.20;3.70;;;;;;;19.76;100.00;98754.19;4350238;32;20053;-76
2022/07/30 10:46:04;;;;;;;3.10;2.85;;;;;;;19.86;100.00;98748.41;4352346;32;20416;-74
2022/07/30 10:48:33;;;;;;;3.97;3.25;;;;;;;19.74;100.00;98729.09;4352071;33;20049;-73
2022/07/30 10:50:59;;;;;;;4.43;3.80;;;;;;;19.69;100.00;98748.34;4365679;32;20051;-73
2022/07/30 10:53:33;;;;;;;7.12;3.55;;;;;;;20.00;100.00;98709.25;4399010;32;20096;-73
2022/07/30 10:56:20;;;;;;;7.37;3.97;;;;;;;20.52;100.00;98731.13;4399162;32;20035;-74
2022/07/30 10:59:15;;;;;;;4.87;3.85;;;;;;;20.96;100.00;98733.81;4399213;32;20027;-74
2022/07/30 11:01:45;;;;;;;8.40;4.12;;;;;;;21.50;100.00;98727.84;4356577;32;20125;-74
2022/07/30 11:04:23;;;;;;;3.40;3.20;;;;;;;21.73;100.00;98722.88;4369263;32;20102;-74
2022/07/30 11:06:51;;;;;;;5.87;3.10;;;;;;;21.25;100.00;98719.38;4366504;32;20434;-75
2022/07/30 11:09:39;;;;;;;8.20;3.90;;;;;;;20.90;100.00;98714.03;4366801;32;20418;-77
2022/07/30 11:12:07;;;;;;;5.80;3.35;;;;;;;20.98;100.00;98715.94;4362024;32;20044;-74
2022/07/30 11:14:57;;;;;;;3.33;3.03;;;;;;;20.82;100.00;98685.56;4361540;32;20069;-74
2022/07/30 11:20:08;;;;;;;3.33;3.03;;;;;;;20.84;100.00;98715.34;4362404;32;20429;-74
2022/07/30 11:22:48;;;;;;;4.12;2.97;;;;;;;20.58;100.00;98680.59;4386594;32;20082;-74
2022/07/30 11:25:26;;;;;;;8.90;3.17;;;;;;;20.73;100.00;98714.88;4399118;32;20090;-74
2022/07/30 11:27:53;;;;;;;3.60;3.10;;;;;;;20.29;100.00;98670.31;4381283;32;20069;-76
2022/07/30 11:30:19;;;;;;;3.67;3.40;;;;;;;20.83;100.00;98702.78;4383507;32;20031;-75
2022/07/30 11:32:50;;;;;;;4.80;3.47;;;;;;;21.47;100.00;98706.56;4397369;32;20168;-75
2022/07/30 11:35:23;;;;;;;2.92;2.72;;;;;;;21.76;100.00;98705.78;4408968;32;20061;-74
2022/07/30 11:37:55;;;;;;;7.70;3.33;;;;;;;21.58;100.00;98710.56;4407867;32;20419;-77
2022/07/30 11:40:23;;;;;;;4.97;2.90;;;;;;;21.37;100.00;98680.34;4405524;32;20042;-74